Time;durP1;ratioP1;P1;durP2;ratioP2;P2;SDS_P1;SDS_P2;PMS_P1;PMS_P2;Temp;Humidity;BMP_temperature;BMP_pressure;BME280_temperature;BME280_humidity;BME280_pressure;Samples;Min_cycle;Max_cycle;Signal;HPM_P1;HPM_P2
2022/04/30 00:02:09;;;;;;;12.35;4.82;;;;;;;;;;5032634;28;20033;-80
2022/04/30 00:04:35;;;;;;;18.50;4.93;;;;;;;;;;5032858;28;20025;-79
2022/04/30 00:07:02;;;;;;;13.45;5.13;;;;;;;;;;5032810;28;20022;-80
2022/04/30 00:09:28;;;;;;;13.75;4.63;;;;;;;;;;5048325;28;20112;-79
2022/04/30 00:11:54;;;;;;;11.52;4.70;;;;;;;;;;5033520;28;20041;-80
2022/04/30 00:14:20;;;;;;;9.43;4.75;;;;;;;;;;5036439;28;20025;-79
2022/04/30 00:16:47;;;;;;;9.07;4.82;;;;;;;;;;5036097;28;20017;-80
2022/04/30 00:19:13;;;;;;;12.60;4.93;;;;;;;;;;5036099;28;20036;-80
2022/04/30 00:21:39;;;;;;;8.18;4.35;;;;;;;;;;5051172;28;20026;-80
2022/04/30 00:24:05;;;;;;;10.60;4.93;;;;;;;;;;5035935;28;20112;-79
2022/04/30 00:26:31;;;;;;;9.93;4.97;;;;;;;;;;5035966;28;20021;-79
2022/04/30 00:28:57;;;;;;;9.93;4.80;;;;;;;;;;5036001;28;20018;-79
2022/04/30 00:31:23;;;;;;;12.10;5.10;;;;;;;;;;5035956;28;20525;-80
2022/04/30 00:33:49;;;;;;;12.77;5.25;;;;;;;;;;5036097;28;20029;-80
2022/04/30 00:36:16;;;;;;;11.75;5.20;;;;;;;;;;5035756;28;20022;-79
2022/04/30 00:38:42;;;;;;;12.10;4.85;;;;;;;;;;5035972;28;20026;-79
2022/04/30 00:41:08;;;;;;;10.13;5.32;;;;;;;;;;5036086;28;20056;-80
2022/04/30 00:43:44;;;;;;;11.55;5.53;;;;;;;;;;5035459;28;20096;-79
2022/04/30 00:46:14;;;;;;;14.25;5.28;;;;;;;;;;5035421;28;20021;-79
2022/04/30 00:48:40;;;;;;;13.95;5.30;;;;;;;;;;5051062;28;20031;-79
2022/04/30 00:51:09;;;;;;;9.02;5.05;;;;;;;;;;5051341;28;20493;-79
2022/04/30 00:53:36;;;;;;;10.73;5.20;;;;;;;;;;5035490;28;20456;-79
2022/04/30 00:56:03;;;;;;;9.85;5.30;;;;;;;;;;5035697;28;20055;-79
2022/04/30 00:58:29;;;;;;;13.35;5.65;;;;;;;;;;5035761;28;20033;-80
2022/04/30 01:00:56;;;;;;;14.75;6.45;;;;;;;;;;5030534;28;20499;-79
2022/04/30 01:03:22;;;;;;;15.25;6.05;;;;;;;;;;5015937;28;20121;-79
2022/04/30 01:05:49;;;;;;;12.23;5.70;;;;;;;;;;5016129;28;20080;-79
2022/04/30 01:08:16;;;;;;;17.10;6.18;;;;;;;;;;5016361;28;20060;-80
2022/04/30 01:10:42;;;;;;;15.10;6.70;;;;;;;;;;5015242;28;20076;-80
2022/04/30 01:13:09;;;;;;;15.82;6.20;;;;;;;;;;5015682;28;20185;-79
2022/04/30 01:15:35;;;;;;;15.38;6.88;;;;;;;;;;5015398;28;20037;-79
2022/04/30 01:18:01;;;;;;;13.07;5.97;;;;;;;;;;5015581;28;20022;-79
2022/04/30 01:20:28;;;;;;;10.27;5.97;;;;;;;;;;5015544;28;20459;-79
2022/04/30 01:22:54;;;;;;;14.45;6.18;;;;;;;;;;5014971;28;20048;-80
2022/04/30 01:25:20;;;;;;;19.55;7.05;;;;;;;;;;5013907;28;20018;-79
2022/04/30 01:27:47;;;;;;;14.20;6.60;;;;;;;;;;5015786;28;20037;-80
2022/04/30 01:30:13;;;;;;;13.57;6.50;;;;;;;;;;5019449;28;20029;-80
2022/04/30 01:38:15;;;;;;;16.25;7.00;;;;;;;;;;5035419;28;20049;-79
2022/04/30 01:40:41;;;;;;;19.92;7.15;;;;;;;;;;5035345;28;20036;-80
2022/04/30 01:43:08;;;;;;;15.20;6.85;;;;;;;;;;5050284;28;20036;-79
2022/04/30 01:45:35;;;;;;;17.08;6.95;;;;;;;;;;5034981;28;20025;-80
2022/04/30 01:48:01;;;;;;;15.25;6.57;;;;;;;;;;5035125;28;20029;-80
2022/04/30 01:50:28;;;;;;;15.18;6.80;;;;;;;;;;5050469;28;20025;-80
2022/04/30 01:52:54;;;;;;;15.40;7.55;;;;;;;;;;5034790;28;20124;-80
2022/04/30 01:55:20;;;;;;;13.30;6.80;;;;;;;;;;5034913;28;20033;-80
2022/04/30 01:57:46;;;;;;;13.90;6.95;;;;;;;;;;5034866;28;20029;-80
2022/04/30 02:00:14;;;;;;;15.32;7.53;;;;;;;;;;5034822;28;20091;-79
2022/04/30 02:02:41;;;;;;;15.00;7.15;;;;;;;;;;5015461;28;20101;-79
2022/04/30 02:05:08;;;;;;;21.10;6.90;;;;;;;;;;5015429;28;20445;-80
2022/04/30 02:07:36;;;;;;;14.75;6.97;;;;;;;;;;5013889;28;20416;-80
2022/04/30 02:10:03;;;;;;;17.35;7.80;;;;;;;;;;5015098;28;20029;-80
2022/04/30 02:12:31;;;;;;;17.30;7.85;;;;;;;;;;5015024;28;20026;-80
2022/04/30 02:14:58;;;;;;;17.20;7.15;;;;;;;;;;5015096;28;20127;-80
2022/04/30 02:17:26;;;;;;;19.98;7.68;;;;;;;;;;5013572;28;20026;-80
2022/04/30 02:22:39;;;;;;;13.93;7.75;;;;;;;;;;5014579;28;20083;-80
2022/04/30 02:25:09;;;;;;;13.45;6.95;;;;;;;;;;5014437;28;20045;-80
2022/04/30 02:27:39;;;;;;;15.25;7.50;;;;;;;;;;5015085;28;20026;-79
2022/04/30 02:30:07;;;;;;;17.55;7.15;;;;;;;;;;5018314;28;20022;-79
2022/04/30 02:32:43;;;;;;;17.50;7.28;;;;;;;;;;5034976;28;20028;-80
2022/04/30 02:35:10;;;;;;;15.68;7.32;;;;;;;;;;5033694;28;20025;-80
2022/04/30 02:37:36;;;;;;;17.27;7.63;;;;;;;;;;5034167;28;20025;-80
2022/04/30 02:40:03;;;;;;;13.90;7.90;;;;;;;;;;5033990;28;20025;-80
2022/04/30 02:42:29;;;;;;;15.43;7.70;;;;;;;;;;5049331;28;20076;-79
2022/04/30 02:44:55;;;;;;;17.20;7.45;;;;;;;;;;5033731;28;20044;-79
2022/04/30 02:47:21;;;;;;;18.63;7.35;;;;;;;;;;5048811;28;20361;-79
2022/04/30 02:49:47;;;;;;;13.52;7.45;;;;;;;;;;5034209;28;20033;-79
2022/04/30 02:52:13;;;;;;;11.77;6.78;;;;;;;;;;5034040;28;20030;-79
2022/04/30 02:54:40;;;;;;;12.35;6.68;;;;;;;;;;5033706;28;20060;-79
2022/04/30 02:57:06;;;;;;;16.85;7.75;;;;;;;;;;5034163;28;20056;-79
2022/04/30 03:02:17;;;;;;;20.90;8.57;;;;;;;;;;5017322;28;20044;-79
2022/04/30 03:04:43;;;;;;;23.60;9.45;;;;;;;;;;5013713;28;20025;-80
2022/04/30 03:07:11;;;;;;;13.57;7.50;;;;;;;;;;5013668;28;20026;-79
2022/04/30 03:09:38;;;;;;;21.38;9.20;;;;;;;;;;5013726;28;20042;-79
2022/04/30 03:12:04;;;;;;;22.17;8.93;;;;;;;;;;5013864;28;20072;-79
2022/04/30 03:14:30;;;;;;;21.40;8.75;;;;;;;;;;5013787;28;20033;-79
2022/04/30 03:22:27;;;;;;;16.02;8.25;;;;;;;;;;5013537;28;20044;-79
2022/04/30 03:24:53;;;;;;;23.25;9.45;;;;;;;;;;5013417;28;20049;-80
2022/04/30 03:27:19;;;;;;;19.10;8.77;;;;;;;;;;5012660;28;20025;-80
2022/04/30 03:29:46;;;;;;;18.17;8.93;;;;;;;;;;5014388;28;20018;-80
2022/04/30 03:32:13;;;;;;;23.08;9.05;;;;;;;;;;5033254;28;20036;-80
2022/04/30 03:34:39;;;;;;;25.38;10.25;;;;;;;;;;5032908;28;20084;-79
2022/04/30 03:37:05;;;;;;;17.52;9.02;;;;;;;;;;5032896;28;20037;-80
2022/04/30 03:39:31;;;;;;;14.02;8.48;;;;;;;;;;5032704;28;20361;-80
2022/04/30 03:41:57;;;;;;;20.10;8.55;;;;;;;;;;5032747;28;20026;-80
2022/04/30 03:44:23;;;;;;;17.83;8.27;;;;;;;;;;5032784;28;20071;-80
2022/04/30 03:46:50;;;;;;;12.13;7.07;;;;;;;;;;5031981;28;20397;-79
2022/04/30 03:49:16;;;;;;;16.90;7.93;;;;;;;;;;5048325;28;20025;-80
2022/04/30 03:51:42;;;;;;;13.82;7.50;;;;;;;;;;5048167;28;20032;-80
2022/04/30 03:54:08;;;;;;;17.38;7.78;;;;;;;;;;5032708;28;20124;-79
2022/04/30 03:56:34;;;;;;;16.10;8.32;;;;;;;;;;5033089;28;20095;-80
2022/04/30 03:59:01;;;;;;;19.92;8.88;;;;;;;;;;5032859;28;20025;-79
2022/04/30 04:01:27;;;;;;;17.35;7.85;;;;;;;;;;5048035;28;20506;-80
2022/04/30 04:03:54;;;;;;;16.48;8.23;;;;;;;;;;5048097;28;20029;-80
2022/04/30 04:06:20;;;;;;;12.18;6.85;;;;;;;;;;5048049;28;20451;-80
2022/04/30 04:08:52;;;;;;;12.45;7.85;;;;;;;;;;5032892;28;20515;-79
2022/04/30 04:11:18;;;;;;;14.80;7.20;;;;;;;;;;5032781;28;20034;-80
2022/04/30 04:19:14;;;;;;;15.75;7.35;;;;;;;;;;5032985;28;20124;-80
2022/04/30 04:21:40;;;;;;;24.13;8.93;;;;;;;;;;5032612;28;20104;-79
2022/04/30 04:26:51;;;;;;;14.25;8.23;;;;;;;;;;5032949;28;20123;-79
2022/04/30 04:29:17;;;;;;;13.13;7.35;;;;;;;;;;5032813;28;20061;-79
2022/04/30 04:31:44;;;;;;;16.05;7.40;;;;;;;;;;5032870;28;20368;-80
2022/04/30 04:34:10;;;;;;;17.08;8.55;;;;;;;;;;5032625;28;20051;-80
2022/04/30 04:36:36;;;;;;;16.58;8.70;;;;;;;;;;5048345;28;20025;-80
2022/04/30 04:39:09;;;;;;;16.75;8.00;;;;;;;;;;5032668;28;20037;-80
2022/04/30 04:41:35;;;;;;;23.17;8.90;;;;;;;;;;5032574;28;20030;-80
2022/04/30 04:44:02;;;;;;;18.42;8.45;;;;;;;;;;5032064;28;20425;-80
2022/04/30 04:46:28;;;;;;;18.73;8.30;;;;;;;;;;5032157;28;20083;-79
2022/04/30 04:48:55;;;;;;;14.52;8.82;;;;;;;;;;5032425;28;20383;-79
2022/04/30 04:51:21;;;;;;;16.52;8.55;;;;;;;;;;5032402;28;20045;-79
2022/04/30 04:53:47;;;;;;;20.50;8.75;;;;;;;;;;5032526;28;20411;-80
2022/04/30 04:56:13;;;;;;;20.48;9.20;;;;;;;;;;5032457;28;20029;-79
2022/04/30 04:58:42;;;;;;;15.75;8.05;;;;;;;;;;5049499;28;20029;-79
2022/04/30 05:01:08;;;;;;;16.77;8.80;;;;;;;;;;5029115;28;20057;-80
2022/04/30 05:03:34;;;;;;;15.90;8.45;;;;;;;;;;5016099;28;20033;-80
2022/04/30 05:06:00;;;;;;;15.68;8.23;;;;;;;;;;5031450;28;20034;-80
2022/04/30 05:08:26;;;;;;;15.13;8.63;;;;;;;;;;5016086;28;20018;-80
2022/04/30 05:10:52;;;;;;;16.23;6.93;;;;;;;;;;5015890;28;20018;-80
2022/04/30 05:13:19;;;;;;;19.20;7.70;;;;;;;;;;5016152;28;20034;-80
2022/04/30 05:15:45;;;;;;;16.42;8.50;;;;;;;;;;5015822;28;20030;-80
2022/04/30 05:18:11;;;;;;;15.75;8.77;;;;;;;;;;5015631;28;20057;-79
2022/04/30 05:20:38;;;;;;;20.17;8.95;;;;;;;;;;5031006;28;20026;-80
2022/04/30 05:23:04;;;;;;;20.60;8.73;;;;;;;;;;5015704;28;20053;-80
2022/04/30 05:25:30;;;;;;;16.60;9.25;;;;;;;;;;5016246;28;20053;-80
2022/04/30 05:27:56;;;;;;;20.40;10.05;;;;;;;;;;5015996;28;20043;-79
2022/04/30 05:30:22;;;;;;;19.77;10.07;;;;;;;;;;5030592;28;20018;-79
2022/04/30 05:32:49;;;;;;;25.90;10.95;;;;;;;;;;5015738;28;20045;-79
2022/04/30 05:35:15;;;;;;;19.90;9.00;;;;;;;;;;5015188;28;20064;-80
2022/04/30 05:37:41;;;;;;;18.65;9.50;;;;;;;;;;5015561;28;20404;-79
2022/04/30 05:40:07;;;;;;;21.98;10.10;;;;;;;;;;5015421;28;20026;-80
2022/04/30 05:42:33;;;;;;;22.75;9.95;;;;;;;;;;5014625;28;20056;-80
2022/04/30 05:44:59;;;;;;;23.42;9.38;;;;;;;;;;5029916;28;20022;-80
2022/04/30 05:47:25;;;;;;;21.65;9.52;;;;;;;;;;5014931;28;20018;-80
2022/04/30 05:49:51;;;;;;;30.40;10.93;;;;;;;;;;5015469;28;20033;-79
2022/04/30 05:52:19;;;;;;;28.52;10.52;;;;;;;;;;5015570;28;20033;-80
2022/04/30 05:54:46;;;;;;;22.25;10.85;;;;;;;;;;5015241;28;20050;-80
2022/04/30 05:57:12;;;;;;;34.95;13.93;;;;;;;;;;5030469;28;20030;-80
2022/04/30 05:59:38;;;;;;;26.90;13.65;;;;;;;;;;5015200;28;20058;-80
2022/04/30 06:02:04;;;;;;;25.85;13.68;;;;;;;;;;5029439;28;20033;-79
2022/04/30 06:04:30;;;;;;;30.45;14.93;;;;;;;;;;5034834;28;20360;-80
2022/04/30 06:06:56;;;;;;;35.05;14.75;;;;;;;;;;5035188;28;20017;-80
2022/04/30 06:09:22;;;;;;;30.83;14.80;;;;;;;;;;5033957;28;20101;-80
2022/04/30 06:11:48;;;;;;;28.65;13.50;;;;;;;;;;5034936;28;20033;-80
2022/04/30 06:14:14;;;;;;;35.95;13.45;;;;;;;;;;5034662;28;20022;-80
2022/04/30 06:16:40;;;;;;;34.83;13.90;;;;;;;;;;5049747;28;20030;-80
2022/04/30 06:19:06;;;;;;;20.35;11.70;;;;;;;;;;5034321;28;20044;-80
2022/04/30 06:21:32;;;;;;;27.23;10.75;;;;;;;;;;5025636;28;20030;-80
2022/04/30 06:23:59;;;;;;;22.83;11.60;;;;;;;;;;5034409;28;20037;-80
2022/04/30 06:26:25;;;;;;;21.65;10.30;;;;;;;;;;5023007;28;20037;-80
2022/04/30 06:28:51;;;;;;;24.17;10.13;;;;;;;;;;5034162;28;20064;-80
2022/04/30 06:31:17;;;;;;;20.30;10.10;;;;;;;;;;5029687;28;20103;-80
2022/04/30 06:33:43;;;;;;;28.95;9.88;;;;;;;;;;5030137;28;20042;-80
2022/04/30 06:36:09;;;;;;;18.48;9.52;;;;;;;;;;5033973;28;20021;-80
2022/04/30 06:38:35;;;;;;;22.85;9.43;;;;;;;;;;5016573;28;20026;-80
2022/04/30 06:41:01;;;;;;;18.05;9.82;;;;;;;;;;5020740;28;20056;-80
2022/04/30 06:43:27;;;;;;;19.70;9.40;;;;;;;;;;5025681;28;20491;-79
2022/04/30 06:45:53;;;;;;;15.60;8.65;;;;;;;;;;5027753;28;20464;-80
2022/04/30 06:48:19;;;;;;;19.83;7.50;;;;;;;;;;5014652;28;20106;-80
2022/04/30 06:50:45;;;;;;;15.25;7.28;;;;;;;;;;5027089;28;20071;-80
2022/04/30 06:58:50;;;;;;;16.80;7.75;;;;;;;;;;5033360;28;20040;-80
2022/04/30 07:04:17;;;;;;;12.82;7.53;;;;;;;;;;4953260;29;20035;-80
2022/04/30 07:06:43;;;;;;;13.70;7.18;;;;;;;;;;4953637;29;20043;-80
2022/04/30 07:09:09;;;;;;;17.48;6.65;;;;;;;;;;4953548;29;20086;-80
2022/04/30 07:11:35;;;;;;;22.25;6.72;;;;;;;;;;4953446;29;20039;-79
2022/04/30 07:14:01;;;;;;;15.85;6.53;;;;;;;;;;4953264;29;20061;-80
2022/04/30 07:16:27;;;;;;;15.55;6.10;;;;;;;;;;4953183;29;20031;-79
2022/04/30 07:18:53;;;;;;;13.65;5.93;;;;;;;;;;4964032;28;20024;-80
2022/04/30 07:21:20;;;;;;;17.67;6.22;;;;;;;;;;4953249;28;20039;-80
2022/04/30 07:23:46;;;;;;;16.40;6.25;;;;;;;;;;4961461;28;20065;-80
2022/04/30 07:26:12;;;;;;;12.45;6.47;;;;;;;;;;4972136;28;20027;-80
2022/04/30 07:28:38;;;;;;;13.20;6.65;;;;;;;;;;4972274;28;20458;-81
2022/04/30 07:31:05;;;;;;;12.10;6.05;;;;;;;;;;4971675;28;20037;-80
2022/04/30 07:33:31;;;;;;;13.52;5.70;;;;;;;;;;4964129;28;20054;-80
2022/04/30 07:35:57;;;;;;;13.70;6.10;;;;;;;;;;4966478;28;20035;-80
2022/04/30 07:38:23;;;;;;;13.25;6.63;;;;;;;;;;4964582;28;20069;-80
2022/04/30 07:40:49;;;;;;;12.18;5.57;;;;;;;;;;5027484;28;20044;-81
2022/04/30 07:43:15;;;;;;;10.60;5.80;;;;;;;;;;5018205;28;20034;-80
2022/04/30 07:45:41;;;;;;;16.67;6.55;;;;;;;;;;5026765;28;20151;-81
2022/04/30 07:48:08;;;;;;;12.18;5.72;;;;;;;;;;5021528;28;20053;-80
2022/04/30 07:50:36;;;;;;;17.75;6.28;;;;;;;;;;5020929;28;20024;-80
2022/04/30 07:53:06;;;;;;;11.52;5.35;;;;;;;;;;5024257;28;20045;-80
2022/04/30 07:55:33;;;;;;;14.27;5.10;;;;;;;;;;5020940;28;20029;-80
2022/04/30 07:57:59;;;;;;;9.52;4.18;;;;;;;;;;5023196;28;20018;-81
2022/04/30 08:00:26;;;;;;;10.95;4.35;;;;;;;;;;5022299;28;20125;-81
2022/04/30 08:02:55;;;;;;;7.35;4.25;;;;;;;;;;5033011;28;20045;-80
2022/04/30 08:05:21;;;;;;;11.25;4.32;;;;;;;;;;5032175;28;20083;-80
2022/04/30 08:07:47;;;;;;;9.57;4.38;;;;;;;;;;5031752;28;20018;-80
2022/04/30 08:10:14;;;;;;;10.88;4.65;;;;;;;;;;5031811;28;20026;-80
2022/04/30 08:12:40;;;;;;;12.18;5.40;;;;;;;;;;5032624;28;20025;-80
2022/04/30 08:15:06;;;;;;;12.40;4.63;;;;;;;;;;5032712;28;20175;-80
2022/04/30 08:17:32;;;;;;;12.15;4.57;;;;;;;;;;5032857;28;20033;-79
2022/04/30 08:19:58;;;;;;;9.18;4.63;;;;;;;;;;5032796;28;20057;-79
2022/04/30 08:22:24;;;;;;;10.45;4.40;;;;;;;;;;5032321;28;20079;-78
2022/04/30 08:24:50;;;;;;;7.18;4.25;;;;;;;;;;5031759;28;20025;-76
2022/04/30 08:27:16;;;;;;;11.10;5.05;;;;;;;;;;5031876;28;20026;-76
2022/04/30 08:29:44;;;;;;;8.05;4.03;;;;;;;;;;5031411;28;20025;-76
2022/04/30 08:32:10;;;;;;;8.68;3.83;;;;;;;;;;5031902;28;20025;-76
2022/04/30 08:34:36;;;;;;;9.57;4.30;;;;;;;;;;5035362;28;20037;-76
2022/04/30 08:37:02;;;;;;;7.22;4.43;;;;;;;;;;5035525;28;20030;-76
2022/04/30 08:39:31;;;;;;;9.30;4.20;;;;;;;;;;5035730;28;20080;-76
2022/04/30 08:41:58;;;;;;;8.30;3.95;;;;;;;;;;5035335;28;20018;-76
2022/04/30 08:44:24;;;;;;;9.20;4.22;;;;;;;;;;5035197;28;20468;-78
2022/04/30 08:46:50;;;;;;;9.05;4.43;;;;;;;;;;5050507;28;20033;-79
2022/04/30 08:49:16;;;;;;;11.88;4.40;;;;;;;;;;5035385;28;20456;-77
2022/04/30 08:51:42;;;;;;;7.80;4.28;;;;;;;;;;5035348;28;20021;-78
2022/04/30 08:54:08;;;;;;;9.43;4.05;;;;;;;;;;5026414;28;20053;-77
2022/04/30 08:56:38;;;;;;;7.20;3.90;;;;;;;;;;5024010;28;20025;-77
2022/04/30 08:59:05;;;;;;;6.90;3.70;;;;;;;;;;5024030;28;20065;-77
2022/04/30 09:01:47;;;;;;;13.38;4.43;;;;;;;;;;5026006;28;20025;-77
2022/04/30 09:04:13;;;;;;;8.15;4.57;;;;;;;;;;5023221;28;20531;-75
2022/04/30 09:06:49;;;;;;;12.73;4.68;;;;;;;;;;5022833;28;20025;-75
2022/04/30 09:09:25;;;;;;;8.57;4.15;;;;;;;;;;5025383;28;20017;-75
2022/04/30 09:11:53;;;;;;;8.52;4.63;;;;;;;;;;5039800;28;20108;-75
2022/04/30 09:14:26;;;;;;;11.63;4.50;;;;;;;;;;5028898;28;20033;-73
2022/04/30 09:17:02;;;;;;;7.82;4.03;;;;;;;;;;5034687;28;20036;-72
2022/04/30 09:19:28;;;;;;;9.88;4.47;;;;;;;;;;5034322;28;20030;-75
2022/04/30 09:21:55;;;;;;;7.22;3.97;;;;;;;;;;5034324;28;20029;-75
2022/04/30 09:24:21;;;;;;;8.18;4.22;;;;;;;;;;5028204;28;20029;-76
2022/04/30 09:26:47;;;;;;;8.23;4.63;;;;;;;;;;5023765;28;20053;-76
2022/04/30 09:29:23;;;;;;;7.03;4.07;;;;;;;;;;5019754;28;20045;-76
2022/04/30 09:31:50;;;;;;;10.35;4.10;;;;;;;;;;5014616;28;20026;-76
2022/04/30 09:39:57;;;;;;;8.70;4.18;;;;;;;;;;5022385;28;20405;-76
2022/04/30 09:42:23;;;;;;;9.05;3.88;;;;;;;;;;5029272;28;20340;-76
2022/04/30 09:44:49;;;;;;;9.13;4.22;;;;;;;;;;5013190;28;20405;-76
2022/04/30 09:47:16;;;;;;;12.30;4.30;;;;;;;;;;5014122;28;20479;-76
2022/04/30 09:55:11;;;;;;;6.70;3.30;;;;;;;;;;5013716;28;20068;-75
2022/04/30 09:57:38;;;;;;;6.75;4.22;;;;;;;;;;5029037;28;20029;-75
2022/04/30 10:00:08;;;;;;;9.38;4.32;;;;;;;;;;5013724;28;20037;-75
2022/04/30 10:02:35;;;;;;;12.68;4.25;;;;;;;;;;5032249;28;20036;-75
2022/04/30 10:05:03;;;;;;;9.52;4.32;;;;;;;;;;5033282;28;20021;-74
2022/04/30 10:07:33;;;;;;;9.07;4.20;;;;;;;;;;5033421;28;20029;-75
2022/04/30 10:10:13;;;;;;;6.90;4.18;;;;;;;;;;5033459;28;20025;-75
2022/04/30 10:12:46;;;;;;;6.13;3.92;;;;;;;;;;5033651;28;20033;-78
2022/04/30 10:15:21;;;;;;;6.72;3.75;;;;;;;;;;5033150;28;20080;-73
2022/04/30 10:17:52;;;;;;;8.15;3.63;;;;;;;;;;5033365;28;20480;-73
2022/04/30 10:20:28;;;;;;;5.78;3.45;;;;;;;;;;5026112;28;20034;-74
2022/04/30 10:22:55;;;;;;;8.65;3.88;;;;;;;;;;5013723;28;20430;-75
2022/04/30 10:25:41;;;;;;;6.72;4.28;;;;;;;;;;5016468;28;20033;-74
2022/04/30 10:28:19;;;;;;;10.10;4.45;;;;;;;;;;5019955;28;20030;-74
2022/04/30 10:30:48;;;;;;;8.45;4.20;;;;;;;;;;5021471;28;20025;-74
2022/04/30 10:33:15;;;;;;;8.25;3.90;;;;;;;;;;5022410;28;20025;-74
2022/04/30 10:35:45;;;;;;;13.00;3.90;;;;;;;;;;5021653;28;20101;-75
2022/04/30 10:38:21;;;;;;;6.47;3.47;;;;;;;;;;5022242;28;20022;-74
2022/04/30 10:40:47;;;;;;;7.30;3.40;;;;;;;;;;5024416;28;20388;-74
2022/04/30 10:43:14;;;;;;;7.90;3.55;;;;;;;;;;5016213;28;20357;-75
2022/04/30 10:45:40;;;;;;;6.97;3.05;;;;;;;;;;5021220;28;20017;-74
2022/04/30 10:48:06;;;;;;;5.20;3.08;;;;;;;;;;5028726;28;20026;-74
2022/04/30 10:50:33;;;;;;;7.53;3.65;;;;;;;;;;5023740;28;20418;-75
2022/04/30 10:53:00;;;;;;;9.18;3.58;;;;;;;;;;5022202;28;20033;-75
2022/04/30 10:55:27;;;;;;;10.30;4.45;;;;;;;;;;5020809;28;20101;-75
2022/04/30 10:57:54;;;;;;;8.85;3.80;;;;;;;;;;5019559;28;20026;-75
2022/04/30 11:00:23;;;;;;;7.32;3.92;;;;;;;;;;5015791;28;20047;-75
2022/04/30 11:02:49;;;;;;;12.57;3.70;;;;;;;;;;5015886;28;20034;-75
2022/04/30 11:05:22;;;;;;;7.03;4.00;;;;;;;;;;5020248;28;20045;-75
2022/04/30 11:07:49;;;;;;;11.60;4.30;;;;;;;;;;5018176;28;20033;-75
2022/04/30 11:10:15;;;;;;;8.98;3.90;;;;;;;;;;5012747;28;20022;-77
2022/04/30 11:12:43;;;;;;;5.45;3.88;;;;;;;;;;5011829;28;20026;-78
2022/04/30 11:15:10;;;;;;;5.82;3.90;;;;;;;;;;5030426;28;20032;-80
2022/04/30 11:17:43;;;;;;;8.68;3.70;;;;;;;;;;5033214;28;20025;-80
2022/04/30 11:20:09;;;;;;;6.50;3.90;;;;;;;;;;5033202;28;20495;-80
2022/04/30 11:22:35;;;;;;;6.75;3.83;;;;;;;;;;5033160;28;20026;-80
2022/04/30 11:25:01;;;;;;;6.97;3.58;;;;;;;;;;5033138;28;20383;-80
2022/04/30 11:27:31;;;;;;;8.73;3.75;;;;;;;;;;5032054;28;20122;-80
2022/04/30 11:29:57;;;;;;;8.55;3.65;;;;;;;;;;5030165;28;20415;-80
2022/04/30 11:32:27;;;;;;;7.05;3.65;;;;;;;;;;5011784;28;20029;-80
2022/04/30 11:34:54;;;;;;;7.25;3.72;;;;;;;;;;5013163;28;20104;-80
2022/04/30 11:37:20;;;;;;;7.18;2.80;;;;;;;;;;5013099;28;20030;-80
2022/04/30 11:39:46;;;;;;;5.72;3.00;;;;;;;;;;5011821;28;20499;-80
2022/04/30 11:42:12;;;;;;;6.15;2.63;;;;;;;;;;5012546;28;20017;-78
2022/04/30 11:44:38;;;;;;;8.77;2.38;;;;;;;;;;5017577;28;20479;-77
2022/04/30 11:47:06;;;;;;;3.90;2.15;;;;;;;;;;5025837;28;20036;-78
2022/04/30 11:49:32;;;;;;;4.15;2.30;;;;;;;;;;5020219;28;20025;-78
2022/04/30 11:51:59;;;;;;;3.55;2.45;;;;;;;;;;5016705;28;20033;-79
2022/04/30 11:54:26;;;;;;;4.82;2.20;;;;;;;;;;5012657;28;20049;-82
2022/04/30 11:56:52;;;;;;;5.60;2.38;;;;;;;;;;5012045;28;20088;-78
2022/04/30 11:59:32;;;;;;;7.53;2.25;;;;;;;;;;5012174;28;20153;-77
2022/04/30 12:02:06;;;;;;;5.50;2.40;;;;;;;;;;5024799;28;20167;-80
2022/04/30 12:04:34;;;;;;;4.55;2.10;;;;;;;;;;5028024;28;20467;-80
2022/04/30 12:07:00;;;;;;;5.97;2.10;;;;;;;;;;5030852;28;20029;-78
2022/04/30 12:09:30;;;;;;;7.05;1.90;;;;;;;;;;5024218;28;20091;-77
2022/04/30 12:11:56;;;;;;;5.20;1.88;;;;;;;;;;5026426;28;20029;-76
2022/04/30 12:14:22;;;;;;;8.38;2.15;;;;;;;;;;5027104;28;20072;-80
2022/04/30 12:16:49;;;;;;;4.20;1.92;;;;;;;;;;5032721;28;20382;-78
2022/04/30 12:25:02;;;;;;;3.92;1.77;;;;;;;;;;4974369;28;20039;-77
2022/04/30 12:27:29;;;;;;;4.55;1.75;;;;;;;;;;4974632;28;20042;-77
2022/04/30 12:30:02;;;;;;;3.15;1.75;;;;;;;;;;4958413;28;20046;-77
2022/04/30 12:32:28;;;;;;;4.55;1.65;;;;;;;;;;4974496;28;20117;-77
2022/04/30 12:34:56;;;;;;;6.25;1.92;;;;;;;;;;4974116;28;20039;-77
2022/04/30 12:37:29;;;;;;;4.63;2.35;;;;;;;;;;4973979;28;20112;-76
2022/04/30 12:39:55;;;;;;;5.53;2.30;;;;;;;;;;4974066;28;20037;-76
2022/04/30 12:42:21;;;;;;;8.00;2.22;;;;;;;;;;4973898;28;20035;-76
2022/04/30 12:44:48;;;;;;;7.55;2.35;;;;;;;;;;4957746;28;20065;-77
2022/04/30 12:47:14;;;;;;;6.60;2.30;;;;;;;;;;4957732;28;20150;-78
2022/04/30 12:49:40;;;;;;;7.50;2.47;;;;;;;;;;4974369;28;20125;-75
2022/04/30 12:52:06;;;;;;;6.45;1.92;;;;;;;;;;4974189;28;20035;-77
2022/04/30 12:54:32;;;;;;;10.20;2.22;;;;;;;;;;4957855;28;20050;-74
2022/04/30 12:56:59;;;;;;;4.25;2.30;;;;;;;;;;4974367;28;20464;-74
2022/04/30 12:59:25;;;;;;;9.50;2.63;;;;;;;;;;4970887;28;20118;-74
2022/04/30 13:01:52;;;;;;;6.03;2.42;;;;;;;;;;4991508;28;20065;-74
2022/04/30 13:04:18;;;;;;;4.97;2.20;;;;;;;;;;5023420;28;20109;-76
2022/04/30 13:06:44;;;;;;;4.60;2.63;;;;;;;;;;5026667;28;20124;-76
2022/04/30 13:14:39;;;;;;;4.72;2.50;;;;;;;;;;5029034;28;20550;-76
2022/04/30 13:17:05;;;;;;;10.60;2.42;;;;;;;;;;5019391;28;20048;-75
2022/04/30 13:19:32;;;;;;;5.63;2.55;;;;;;;;;;5022547;28;20021;-76
2022/04/30 13:21:59;;;;;;;10.85;3.15;;;;;;;;;;5025329;28;20037;-75
2022/04/30 13:24:26;;;;;;;7.65;3.00;;;;;;;;;;5027555;28;20428;-76
2022/04/30 13:26:52;;;;;;;6.30;2.20;;;;;;;;;;5033090;28;20029;-75
2022/04/30 13:29:19;;;;;;;5.68;2.30;;;;;;;;;;5034223;28;20018;-74
2022/04/30 13:31:45;;;;;;;4.63;2.13;;;;;;;;;;5016421;28;20037;-77
2022/04/30 13:34:11;;;;;;;4.75;2.00;;;;;;;;;;5014311;28;20034;-75
2022/04/30 13:36:39;;;;;;;8.65;3.38;;;;;;;;;;5014354;28;20110;-75
2022/04/30 13:39:05;;;;;;;7.15;2.10;;;;;;;;;;5028997;28;20391;-77
2022/04/30 13:41:31;;;;;;;6.07;2.55;;;;;;;;;;5024502;28;20048;-76
2022/04/30 13:43:58;;;;;;;4.22;1.80;;;;;;;;;;5016300;28;20037;-76
2022/04/30 13:46:24;;;;;;;8.00;2.10;;;;;;;;;;5012676;28;20022;-76
2022/04/30 13:48:51;;;;;;;5.22;1.80;;;;;;;;;;5012823;28;20030;-76
2022/04/30 13:51:17;;;;;;;3.35;1.80;;;;;;;;;;5017616;28;20018;-76
2022/04/30 13:53:43;;;;;;;4.28;1.90;;;;;;;;;;5023003;28;20117;-77
2022/04/30 13:56:10;;;;;;;5.80;2.10;;;;;;;;;;5024208;28;20033;-75
2022/04/30 13:58:36;;;;;;;4.70;2.08;;;;;;;;;;5018296;28;20110;-77
2022/04/30 14:01:03;;;;;;;3.75;1.80;;;;;;;;;;5030581;28;20464;-77
2022/04/30 14:03:29;;;;;;;5.40;2.30;;;;;;;;;;5027645;28;20467;-79
2022/04/30 14:05:55;;;;;;;13.38;2.20;;;;;;;;;;5023233;28;20041;-77
2022/04/30 14:08:21;;;;;;;3.20;1.80;;;;;;;;;;5026538;28;20441;-78
2022/04/30 14:10:48;;;;;;;5.85;2.20;;;;;;;;;;5022061;28;20098;-77
2022/04/30 14:15:59;;;;;;;3.33;1.85;;;;;;;;;;5018425;28;20088;-79
2022/04/30 14:18:25;;;;;;;8.95;2.10;;;;;;;;;;5019319;28;20041;-78
2022/04/30 14:20:52;;;;;;;8.52;2.58;;;;;;;;;;5016603;28;20126;-78
2022/04/30 14:23:19;;;;;;;5.15;1.90;;;;;;;;;;5022744;28;20029;-76
2022/04/30 14:25:45;;;;;;;5.85;2.03;;;;;;;;;;5023058;28;20379;-76
2022/04/30 14:28:12;;;;;;;6.28;1.83;;;;;;;;;;5026713;28;20096;-75
2022/04/30 14:30:41;;;;;;;7.10;1.83;;;;;;;;;;5021798;28;20468;-75
2022/04/30 14:33:08;;;;;;;3.35;1.52;;;;;;;;;;5016508;28;20040;-76
2022/04/30 14:35:35;;;;;;;4.07;1.92;;;;;;;;;;5030231;28;20096;-75
2022/04/30 14:38:03;;;;;;;6.18;2.05;;;;;;;;;;5017370;28;20091;-76
2022/04/30 14:40:29;;;;;;;12.32;1.90;;;;;;;;;;5013764;28;20025;-75
2022/04/30 14:42:55;;;;;;;7.28;2.00;;;;;;;;;;5022501;28;20467;-76
2022/04/30 14:45:23;;;;;;;4.40;1.80;;;;;;;;;;5022936;28;20025;-76
2022/04/30 14:47:49;;;;;;;5.03;2.00;;;;;;;;;;5021327;28;20033;-76
2022/04/30 14:50:15;;;;;;;5.97;1.60;;;;;;;;;;5020153;28;20052;-79
2022/04/30 14:52:41;;;;;;;5.80;2.22;;;;;;;;;;5024448;28;20026;-78
2022/04/30 14:55:08;;;;;;;5.50;1.92;;;;;;;;;;5021528;28;20052;-76
2022/04/30 14:57:35;;;;;;;4.85;1.70;;;;;;;;;;5022327;28;20021;-76
2022/04/30 15:00:01;;;;;;;4.50;1.70;;;;;;;;;;5023242;28;20029;-76
2022/04/30 15:02:27;;;;;;;4.65;1.90;;;;;;;;;;5021748;28;20026;-79
2022/04/30 15:04:53;;;;;;;5.65;1.83;;;;;;;;;;5020823;28;20056;-77
2022/04/30 15:07:19;;;;;;;5.32;2.28;;;;;;;;;;5024676;28;20053;-75
2022/04/30 15:09:45;;;;;;;5.40;1.98;;;;;;;;;;5016271;28;20021;-74
2022/04/30 15:12:11;;;;;;;4.70;2.08;;;;;;;;;;5020280;28;20022;-75
2022/04/30 15:14:40;;;;;;;3.92;2.00;;;;;;;;;;5015177;28;20472;-75
2022/04/30 15:17:07;;;;;;;3.10;1.98;;;;;;;;;;5017208;28;20025;-75
2022/04/30 15:19:33;;;;;;;4.40;2.10;;;;;;;;;;5017930;28;20092;-75
2022/04/30 15:22:00;;;;;;;3.42;1.88;;;;;;;;;;5021301;28;20030;-75
2022/04/30 15:24:26;;;;;;;4.43;1.95;;;;;;;;;;5025273;28;20419;-75
2022/04/30 15:26:52;;;;;;;4.53;2.00;;;;;;;;;;5025352;28;20060;-75
2022/04/30 15:29:19;;;;;;;8.32;2.08;;;;;;;;;;5019764;28;20029;-75
2022/04/30 15:31:45;;;;;;;4.97;1.60;;;;;;;;;;5022153;28;20525;-75
2022/04/30 15:34:11;;;;;;;4.30;1.77;;;;;;;;;;5023164;28;20044;-75